sensor_id;sensor_type;location;lat;lon;timestamp;P1;P2;P0
80413;PMS5003;69758;52.580;13.068;2023-07-30T00:00:43;7;6;
80413;PMS5003;69758;52.580;13.068;2023-07-30T00:03:07;8;8;
80413;PMS5003;69758;52.580;13.068;2023-07-30T00:05:33;5;5;
80413;PMS5003;69758;52.580;13.068;2023-07-30T00:07:58;6;6;
80413;PMS5003;69758;52.580;13.068;2023-07-30T00:10:22;5;5;
80413;PMS5003;69758;52.580;13.068;2023-07-30T00:12:48;7;7;
80413;PMS5003;69758;52.580;13.068;2023-07-30T00:15:13;7;6;
80413;PMS5003;69758;52.580;13.068;2023-07-30T00:17:46;5;5;
80413;PMS5003;69758;52.580;13.068;2023-07-30T00:20:04;8;8;
80413;PMS5003;69758;52.580;13.068;2023-07-30T00:22:29;7;6;
80413;PMS5003;69758;52.580;13.068;2023-07-30T00:24:54;6;6;
80413;PMS5003;69758;52.580;13.068;2023-07-30T00:27:21;6;6;
80413;PMS5003;69758;52.580;13.068;2023-07-30T00:29:45;4;4;
80413;PMS5003;69758;52.580;13.068;2023-07-30T00:32:08;7;7;
80413;PMS5003;69758;52.580;13.068;2023-07-30T00:34:33;4;4;
80413;PMS5003;69758;52.580;13.068;2023-07-30T00:36:58;7;7;
80413;PMS5003;69758;52.580;13.068;2023-07-30T00:51:44;5;5;
80413;PMS5003;69758;52.580;13.068;2023-07-30T00:54:03;6;5;
80413;PMS5003;69758;52.580;13.068;2023-07-30T00:56:22;5;5;
80413;PMS5003;69758;52.580;13.068;2023-07-30T00:58:47;6;6;
80413;PMS5003;69758;52.580;13.068;2023-07-30T01:01:10;8;7;
80413;PMS5003;69758;52.580;13.068;2023-07-30T01:03:35;5;5;
80413;PMS5003;69758;52.580;13.068;2023-07-30T01:06:13;5;5;
80413;PMS5003;69758;52.580;13.068;2023-07-30T01:08:26;8;8;
80413;PMS5003;69758;52.580;13.068;2023-07-30T01:10:50;7;7;
80413;PMS5003;69758;52.580;13.068;2023-07-30T01:13:14;6;6;
80413;PMS5003;69758;52.580;13.068;2023-07-30T01:15:40;5;5;
80413;PMS5003;69758;52.580;13.068;2023-07-30T01:18:05;6;6;
80413;PMS5003;69758;52.580;13.068;2023-07-30T01:20:30;7;7;
80413;PMS5003;69758;52.580;13.068;2023-07-30T01:22:55;8;8;
80413;PMS5003;69758;52.580;13.068;2023-07-30T01:25:20;7;7;
80413;PMS5003;69758;52.580;13.068;2023-07-30T01:27:47;5;5;
80413;PMS5003;69758;52.580;13.068;2023-07-30T01:30:13;5;5;
80413;PMS5003;69758;52.580;13.068;2023-07-30T01:32:36;6;6;
80413;PMS5003;69758;52.580;13.068;2023-07-30T01:35:01;6;6;
80413;PMS5003;69758;52.580;13.068;2023-07-30T01:37:27;5;5;
80413;PMS5003;69758;52.580;13.068;2023-07-30T01:39:53;6;5;
80413;PMS5003;69758;52.580;13.068;2023-07-30T01:42:18;5;5;
80413;PMS5003;69758;52.580;13.068;2023-07-30T01:44:43;6;6;
80413;PMS5003;69758;52.580;13.068;2023-07-30T01:47:11;7;7;
80413;PMS5003;69758;52.580;13.068;2023-07-30T01:49:41;7;7;
80413;PMS5003;69758;52.580;13.068;2023-07-30T01:52:01;6;5;
80413;PMS5003;69758;52.580;13.068;2023-07-30T01:54:23;7;7;
80413;PMS5003;69758;52.580;13.068;2023-07-30T01:56:51;7;7;
80413;PMS5003;69758;52.580;13.068;2023-07-30T01:59:12;6;6;
80413;PMS5003;69758;52.580;13.068;2023-07-30T02:01:37;5;5;
80413;PMS5003;69758;52.580;13.068;2023-07-30T02:04:02;4;4;
80413;PMS5003;69758;52.580;13.068;2023-07-30T02:06:28;7;7;
80413;PMS5003;69758;52.580;13.068;2023-07-30T02:08:53;6;6;
80413;PMS5003;69758;52.580;13.068;2023-07-30T02:11:18;6;6;
80413;PMS5003;69758;52.580;13.068;2023-07-30T02:13:43;7;7;
80413;PMS5003;69758;52.580;13.068;2023-07-30T02:16:16;7;7;
80413;PMS5003;69758;52.580;13.068;2023-07-30T02:18:34;6;6;
80413;PMS5003;69758;52.580;13.068;2023-07-30T02:20:59;7;7;
80413;PMS5003;69758;52.580;13.068;2023-07-30T02:23:23;8;7;
80413;PMS5003;69758;52.580;13.068;2023-07-30T02:28:13;7;6;
80413;PMS5003;69758;52.580;13.068;2023-07-30T02:30:39;7;7;
80413;PMS5003;69758;52.580;13.068;2023-07-30T02:33:13;7;7;
80413;PMS5003;69758;52.580;13.068;2023-07-30T02:35:34;7;7;
80413;PMS5003;69758;52.580;13.068;2023-07-30T02:37:54;7;7;
80413;PMS5003;69758;52.580;13.068;2023-07-30T02:40:19;8;8;
80413;PMS5003;69758;52.580;13.068;2023-07-30T02:42:44;5;5;
80413;PMS5003;69758;52.580;13.068;2023-07-30T02:45:10;6;6;
80413;PMS5003;69758;52.580;13.068;2023-07-30T02:47:35;7;7;
80413;PMS5003;69758;52.580;13.068;2023-07-30T02:50:00;7;7;
80413;PMS5003;69758;52.580;13.068;2023-07-30T02:52:25;6;6;
80413;PMS5003;69758;52.580;13.068;2023-07-30T02:54:50;6;6;
80413;PMS5003;69758;52.580;13.068;2023-07-30T02:57:16;6;6;
80413;PMS5003;69758;52.580;13.068;2023-07-30T02:59:40;7;6;
80413;PMS5003;69758;52.580;13.068;2023-07-30T03:02:07;6;6;
80413;PMS5003;69758;52.580;13.068;2023-07-30T03:04:38;5;5;
80413;PMS5003;69758;52.580;13.068;2023-07-30T03:07:08;5;5;
80413;PMS5003;69758;52.580;13.068;2023-07-30T03:09:23;6;6;
80413;PMS5003;69758;52.580;13.068;2023-07-30T03:11:49;6;6;
80413;PMS5003;69758;52.580;13.068;2023-07-30T03:14:12;6;6;
80413;PMS5003;69758;52.580;13.068;2023-07-30T03:16:36;5;5;
80413;PMS5003;69758;52.580;13.068;2023-07-30T03:19:03;7;7;
80413;PMS5003;69758;52.580;13.068;2023-07-30T03:21:27;5;5;
80413;PMS5003;69758;52.580;13.068;2023-07-30T03:23:54;8;8;
80413;PMS5003;69758;52.580;13.068;2023-07-30T03:26:19;7;7;
80413;PMS5003;69758;52.580;13.068;2023-07-30T03:28:45;6;6;
80413;PMS5003;69758;52.580;13.068;2023-07-30T03:31:10;8;7;
80413;PMS5003;69758;52.580;13.068;2023-07-30T03:33:48;7;7;
80413;PMS5003;69758;52.580;13.068;2023-07-30T03:38:25;8;8;
80413;PMS5003;69758;52.580;13.068;2023-07-30T03:41:00;8;7;
80413;PMS5003;69758;52.580;13.068;2023-07-30T03:43:14;6;6;
80413;PMS5003;69758;52.580;13.068;2023-07-30T03:45:38;8;8;
80413;PMS5003;69758;52.580;13.068;2023-07-30T03:48:04;5;5;
80413;PMS5003;69758;52.580;13.068;2023-07-30T03:50:28;11;11;
80413;PMS5003;69758;52.580;13.068;2023-07-30T03:52:53;8;8;
80413;PMS5003;69758;52.580;13.068;2023-07-30T03:55:19;7;6;
80413;PMS5003;69758;52.580;13.068;2023-07-30T03:57:43;7;7;
80413;PMS5003;69758;52.580;13.068;2023-07-30T04:00:09;10;10;
80413;PMS5003;69758;52.580;13.068;2023-07-30T04:02:34;8;8;
80413;PMS5003;69758;52.580;13.068;2023-07-30T04:04:59;7;7;
80413;PMS5003;69758;52.580;13.068;2023-07-30T04:07:24;7;7;
80413;PMS5003;69758;52.580;13.068;2023-07-30T04:09:55;8;7;
80413;PMS5003;69758;52.580;13.068;2023-07-30T04:12:14;9;8;
80413;PMS5003;69758;52.580;13.068;2023-07-30T04:14:39;9;8;
80413;PMS5003;69758;52.580;13.068;2023-07-30T04:17:05;8;8;
80413;PMS5003;69758;52.580;13.068;2023-07-30T04:19:30;7;7;
80413;PMS5003;69758;52.580;13.068;2023-07-30T04:21:55;10;10;
80413;PMS5003;69758;52.580;13.068;2023-07-30T04:24:20;7;7;
80413;PMS5003;69758;52.580;13.068;2023-07-30T04:26:49;8;8;
80413;PMS5003;69758;52.580;13.068;2023-07-30T04:31:37;8;8;
80413;PMS5003;69758;52.580;13.068;2023-07-30T04:34:01;9;9;
80413;PMS5003;69758;52.580;13.068;2023-07-30T04:36:26;10;10;
80413;PMS5003;69758;52.580;13.068;2023-07-30T04:38:55;7;7;
80413;PMS5003;69758;52.580;13.068;2023-07-30T04:41:31;9;9;
80413;PMS5003;69758;52.580;13.068;2023-07-30T04:43:42;8;8;
80413;PMS5003;69758;52.580;13.068;2023-07-30T04:46:07;9;9;
80413;PMS5003;69758;52.580;13.068;2023-07-30T04:48:31;10;10;
80413;PMS5003;69758;52.580;13.068;2023-07-30T04:50:57;9;9;
80413;PMS5003;69758;52.580;13.068;2023-07-30T04:53:23;9;9;
80413;PMS5003;69758;52.580;13.068;2023-07-30T04:55:48;10;10;
80413;PMS5003;69758;52.580;13.068;2023-07-30T04:58:13;8;8;
80413;PMS5003;69758;52.580;13.068;2023-07-30T05:00:38;9;9;
80413;PMS5003;69758;52.580;13.068;2023-07-30T05:03:03;8;8;
80413;PMS5003;69758;52.580;13.068;2023-07-30T05:05:28;11;11;
80413;PMS5003;69758;52.580;13.068;2023-07-30T05:07:53;9;9;
80413;PMS5003;69758;52.580;13.068;2023-07-30T05:10:20;9;9;
80413;PMS5003;69758;52.580;13.068;2023-07-30T05:12:44;8;8;
80413;PMS5003;69758;52.580;13.068;2023-07-30T05:15:12;12;11;
80413;PMS5003;69758;52.580;13.068;2023-07-30T05:17:36;10;10;
80413;PMS5003;69758;52.580;13.068;2023-07-30T05:20:02;12;12;
80413;PMS5003;69758;52.580;13.068;2023-07-30T05:24:56;9;9;
80413;PMS5003;69758;52.580;13.068;2023-07-30T05:27:17;9;9;
80413;PMS5003;69758;52.580;13.068;2023-07-30T05:29:46;10;9;
80413;PMS5003;69758;52.580;13.068;2023-07-30T05:32:16;9;9;
80413;PMS5003;69758;52.580;13.068;2023-07-30T05:41:48;10;10;
80413;PMS5003;69758;52.580;13.068;2023-07-30T05:53:54;12;11;
80413;PMS5003;69758;52.580;13.068;2023-07-30T06:03:40;9;7;
80413;PMS5003;69758;52.580;13.068;2023-07-30T06:08:24;8;8;
80413;PMS5003;69758;52.580;13.068;2023-07-30T06:13:17;10;9;
80413;PMS5003;69758;52.580;13.068;2023-07-30T06:15:47;8;8;
80413;PMS5003;69758;52.580;13.068;2023-07-30T06:22:56;8;8;
80413;PMS5003;69758;52.580;13.068;2023-07-30T06:25:19;9;7;
80413;PMS5003;69758;52.580;13.068;2023-07-30T06:35:00;10;10;
80413;PMS5003;69758;52.580;13.068;2023-07-30T06:37:26;7;7;
80413;PMS5003;69758;52.580;13.068;2023-07-30T06:39:57;9;8;
80413;PMS5003;69758;52.580;13.068;2023-07-30T06:42:20;10;10;
80413;PMS5003;69758;52.580;13.068;2023-07-30T06:49:32;7;6;
80413;PMS5003;69758;52.580;13.068;2023-07-30T06:52:11;8;8;
80413;PMS5003;69758;52.580;13.068;2023-07-30T06:54:24;7;7;
80413;PMS5003;69758;52.580;13.068;2023-07-30T06:57:01;5;5;
80413;PMS5003;69758;52.580;13.068;2023-07-30T06:59:27;8;8;
80413;PMS5003;69758;52.580;13.068;2023-07-30T07:04:01;7;7;
80413;PMS5003;69758;52.580;13.068;2023-07-30T07:08:51;8;8;
80413;PMS5003;69758;52.580;13.068;2023-07-30T07:11:13;9;9;
80413;PMS5003;69758;52.580;13.068;2023-07-30T07:13:50;10;10;
80413;PMS5003;69758;52.580;13.068;2023-07-30T07:16:03;8;8;
80413;PMS5003;69758;52.580;13.068;2023-07-30T07:18:27;7;7;
80413;PMS5003;69758;52.580;13.068;2023-07-30T07:21:06;8;8;
80413;PMS5003;69758;52.580;13.068;2023-07-30T07:28:18;7;7;
80413;PMS5003;69758;52.580;13.068;2023-07-30T07:35:23;4;4;
80413;PMS5003;69758;52.580;13.068;2023-07-30T07:37:56;6;6;
80413;PMS5003;69758;52.580;13.068;2023-07-30T07:40:13;8;7;
80413;PMS5003;69758;52.580;13.068;2023-07-30T07:42:38;6;5;
80413;PMS5003;69758;52.580;13.068;2023-07-30T07:45:03;6;6;
80413;PMS5003;69758;52.580;13.068;2023-07-30T07:47:28;6;6;
80413;PMS5003;69758;52.580;13.068;2023-07-30T07:49:53;5;5;
80413;PMS5003;69758;52.580;13.068;2023-07-30T07:52:18;6;5;
80413;PMS5003;69758;52.580;13.068;2023-07-30T07:54:43;5;5;
80413;PMS5003;69758;52.580;13.068;2023-07-30T07:57:08;6;6;
80413;PMS5003;69758;52.580;13.068;2023-07-30T07:59:33;5;5;
80413;PMS5003;69758;52.580;13.068;2023-07-30T08:01:58;6;6;
80413;PMS5003;69758;52.580;13.068;2023-07-30T08:04:23;6;6;
80413;PMS5003;69758;52.580;13.068;2023-07-30T08:06:48;5;5;
80413;PMS5003;69758;52.580;13.068;2023-07-30T08:09:13;6;5;
80413;PMS5003;69758;52.580;13.068;2023-07-30T08:11:38;6;6;
80413;PMS5003;69758;52.580;13.068;2023-07-30T08:14:03;5;5;
80413;PMS5003;69758;52.580;13.068;2023-07-30T08:16:29;6;6;
80413;PMS5003;69758;52.580;13.068;2023-07-30T08:18:54;4;3;
80413;PMS5003;69758;52.580;13.068;2023-07-30T08:21:18;5;5;
80413;PMS5003;69758;52.580;13.068;2023-07-30T08:23:43;6;6;
80413;PMS5003;69758;52.580;13.068;2023-07-30T08:26:11;5;5;
80413;PMS5003;69758;52.580;13.068;2023-07-30T08:28:33;6;6;
80413;PMS5003;69758;52.580;13.068;2023-07-30T08:30:59;5;5;
80413;PMS5003;69758;52.580;13.068;2023-07-30T08:33:23;6;5;
80413;PMS5003;69758;52.580;13.068;2023-07-30T08:35:49;5;5;
80413;PMS5003;69758;52.580;13.068;2023-07-30T08:38:13;6;6;
80413;PMS5003;69758;52.580;13.068;2023-07-30T08:40:43;6;5;
80413;PMS5003;69758;52.580;13.068;2023-07-30T08:43:03;4;4;
80413;PMS5003;69758;52.580;13.068;2023-07-30T08:45:28;5;5;
80413;PMS5003;69758;52.580;13.068;2023-07-30T08:47:54;7;6;
80413;PMS5003;69758;52.580;13.068;2023-07-30T08:50:28;5;5;
80413;PMS5003;69758;52.580;13.068;2023-07-30T08:52:43;6;5;
80413;PMS5003;69758;52.580;13.068;2023-07-30T08:55:08;5;5;
80413;PMS5003;69758;52.580;13.068;2023-07-30T08:57:33;4;4;
80413;PMS5003;69758;52.580;13.068;2023-07-30T09:00:00;6;6;
80413;PMS5003;69758;52.580;13.068;2023-07-30T09:02:26;6;6;
80413;PMS5003;69758;52.580;13.068;2023-07-30T09:04:52;3;3;
80413;PMS5003;69758;52.580;13.068;2023-07-30T09:07:16;4;4;
80413;PMS5003;69758;52.580;13.068;2023-07-30T09:09:42;6;6;
80413;PMS5003;69758;52.580;13.068;2023-07-30T09:12:12;3;3;
80413;PMS5003;69758;52.580;13.068;2023-07-30T09:14:33;5;5;
80413;PMS5003;69758;52.580;13.068;2023-07-30T09:16:59;3;3;
80413;PMS5003;69758;52.580;13.068;2023-07-30T09:19:25;2;2;
80413;PMS5003;69758;52.580;13.068;2023-07-30T09:21:51;2;2;
80413;PMS5003;69758;52.580;13.068;2023-07-30T09:24:20;7;6;
80413;PMS5003;69758;52.580;13.068;2023-07-30T09:26:43;6;5;
80413;PMS5003;69758;52.580;13.068;2023-07-30T09:29:09;3;3;
80413;PMS5003;69758;52.580;13.068;2023-07-30T09:34:00;6;6;
80413;PMS5003;69758;52.580;13.068;2023-07-30T09:36:32;5;5;
80413;PMS5003;69758;52.580;13.068;2023-07-30T09:38:51;4;3;
80413;PMS5003;69758;52.580;13.068;2023-07-30T09:41:17;6;5;
80413;PMS5003;69758;52.580;13.068;2023-07-30T09:43:43;6;6;
80413;PMS5003;69758;52.580;13.068;2023-07-30T09:46:09;4;4;
80413;PMS5003;69758;52.580;13.068;2023-07-30T09:48:35;3;3;
80413;PMS5003;69758;52.580;13.068;2023-07-30T09:51:01;6;6;
80413;PMS5003;69758;52.580;13.068;2023-07-30T09:53:26;5;5;
80413;PMS5003;69758;52.580;13.068;2023-07-30T09:55:52;4;4;
80413;PMS5003;69758;52.580;13.068;2023-07-30T09:58:18;5;5;
80413;PMS5003;69758;52.580;13.068;2023-07-30T10:00:44;6;6;
80413;PMS5003;69758;52.580;13.068;2023-07-30T10:03:10;5;5;
80413;PMS5003;69758;52.580;13.068;2023-07-30T10:05:36;6;5;
80413;PMS5003;69758;52.580;13.068;2023-07-30T10:08:03;5;5;
80413;PMS5003;69758;52.580;13.068;2023-07-30T10:10:28;4;4;
80413;PMS5003;69758;52.580;13.068;2023-07-30T10:12:53;4;4;
80413;PMS5003;69758;52.580;13.068;2023-07-30T10:15:19;3;3;
80413;PMS5003;69758;52.580;13.068;2023-07-30T10:20:17;3;3;
80413;PMS5003;69758;52.580;13.068;2023-07-30T10:22:38;5;5;
80413;PMS5003;69758;52.580;13.068;2023-07-30T10:25:03;4;4;
80413;PMS5003;69758;52.580;13.068;2023-07-30T10:32:20;4;3;
80413;PMS5003;69758;52.580;13.068;2023-07-30T10:34:46;4;4;
80413;PMS5003;69758;52.580;13.068;2023-07-30T10:37:12;6;6;
80413;PMS5003;69758;52.580;13.068;2023-07-30T10:39:38;6;6;
80413;PMS5003;69758;52.580;13.068;2023-07-30T10:42:03;4;4;
80413;PMS5003;69758;52.580;13.068;2023-07-30T10:44:30;5;4;
80413;PMS5003;69758;52.580;13.068;2023-07-30T10:46:55;3;3;
80413;PMS5003;69758;52.580;13.068;2023-07-30T10:49:21;4;4;
80413;PMS5003;69758;52.580;13.068;2023-07-30T10:51:47;4;4;
80413;PMS5003;69758;52.580;13.068;2023-07-30T10:54:12;2;2;
80413;PMS5003;69758;52.580;13.068;2023-07-30T10:56:38;5;4;
80413;PMS5003;69758;52.580;13.068;2023-07-30T10:59:04;3;3;
80413;PMS5003;69758;52.580;13.068;2023-07-30T11:01:30;2;2;
80413;PMS5003;69758;52.580;13.068;2023-07-30T11:03:55;3;3;
80413;PMS5003;69758;52.580;13.068;2023-07-30T11:06:22;4;4;
80413;PMS5003;69758;52.580;13.068;2023-07-30T11:08:47;4;4;
80413;PMS5003;69758;52.580;13.068;2023-07-30T11:11:13;3;2;
80413;PMS5003;69758;52.580;13.068;2023-07-30T11:13:39;4;3;
80413;PMS5003;69758;52.580;13.068;2023-07-30T11:16:12;3;3;
80413;PMS5003;69758;52.580;13.068;2023-07-30T11:18:31;2;2;
80413;PMS5003;69758;52.580;13.068;2023-07-30T11:23:22;3;3;
80413;PMS5003;69758;52.580;13.068;2023-07-30T11:25:48;4;4;
80413;PMS5003;69758;52.580;13.068;2023-07-30T11:28:14;4;4;
80413;PMS5003;69758;52.580;13.068;2023-07-30T11:30:40;2;2;
80413;PMS5003;69758;52.580;13.068;2023-07-30T11:33:05;4;4;
80413;PMS5003;69758;52.580;13.068;2023-07-30T11:35:31;3;3;
80413;PMS5003;69758;52.580;13.068;2023-07-30T11:37:57;4;4;
80413;PMS5003;69758;52.580;13.068;2023-07-30T11:40:23;3;3;
80413;PMS5003;69758;52.580;13.068;2023-07-30T11:42:49;4;4;
80413;PMS5003;69758;52.580;13.068;2023-07-30T11:45:18;3;3;
80413;PMS5003;69758;52.580;13.068;2023-07-30T11:47:40;4;4;
80413;PMS5003;69758;52.580;13.068;2023-07-30T11:50:06;4;4;
80413;PMS5003;69758;52.580;13.068;2023-07-30T11:52:32;3;3;
80413;PMS5003;69758;52.580;13.068;2023-07-30T11:55:00;4;3;
80413;PMS5003;69758;52.580;13.068;2023-07-30T11:57:27;4;4;
80413;PMS5003;69758;52.580;13.068;2023-07-30T11:59:49;3;3;
80413;PMS5003;69758;52.580;13.068;2023-07-30T12:02:16;5;5;
80413;PMS5003;69758;52.580;13.068;2023-07-30T12:04:43;5;5;
80413;PMS5003;69758;52.580;13.068;2023-07-30T12:07:07;6;5;
80413;PMS5003;69758;52.580;13.068;2023-07-30T12:09:35;5;4;
80413;PMS5003;69758;52.580;13.068;2023-07-30T12:12:04;5;5;
80413;PMS5003;69758;52.580;13.068;2023-07-30T12:14:25;4;4;
80413;PMS5003;69758;52.580;13.068;2023-07-30T12:16:50;5;5;
80413;PMS5003;69758;52.580;13.068;2023-07-30T12:19:16;6;6;
80413;PMS5003;69758;52.580;13.068;2023-07-30T12:21:42;7;7;
80413;PMS5003;69758;52.580;13.068;2023-07-30T12:24:08;4;4;
80413;PMS5003;69758;52.580;13.068;2023-07-30T12:26:34;4;4;
80413;PMS5003;69758;52.580;13.068;2023-07-30T12:29:00;6;6;
80413;PMS5003;69758;52.580;13.068;2023-07-30T12:31:25;5;5;
80413;PMS5003;69758;52.580;13.068;2023-07-30T12:33:51;7;6;
80413;PMS5003;69758;52.580;13.068;2023-07-30T12:36:17;4;4;
80413;PMS5003;69758;52.580;13.068;2023-07-30T12:38:43;5;5;
80413;PMS5003;69758;52.580;13.068;2023-07-30T12:41:08;5;5;
80413;PMS5003;69758;52.580;13.068;2023-07-30T12:43:39;5;5;
80413;PMS5003;69758;52.580;13.068;2023-07-30T12:46:00;5;5;
80413;PMS5003;69758;52.580;13.068;2023-07-30T12:48:26;5;5;
80413;PMS5003;69758;52.580;13.068;2023-07-30T12:50:51;6;6;
80413;PMS5003;69758;52.580;13.068;2023-07-30T12:53:17;5;5;
80413;PMS5003;69758;52.580;13.068;2023-07-30T12:55:43;4;4;
80413;PMS5003;69758;52.580;13.068;2023-07-30T12:58:09;3;3;
80413;PMS5003;69758;52.580;13.068;2023-07-30T13:00:35;4;4;
80413;PMS5003;69758;52.580;13.068;2023-07-30T13:03:01;4;4;
80413;PMS5003;69758;52.580;13.068;2023-07-30T13:05:26;4;4;
80413;PMS5003;69758;52.580;13.068;2023-07-30T13:07:52;4;4;
80413;PMS5003;69758;52.580;13.068;2023-07-30T13:10:18;4;4;
80413;PMS5003;69758;52.580;13.068;2023-07-30T13:12:44;5;5;
80413;PMS5003;69758;52.580;13.068;2023-07-30T13:15:10;4;4;
80413;PMS5003;69758;52.580;13.068;2023-07-30T13:17:37;3;3;
80413;PMS5003;69758;52.580;13.068;2023-07-30T13:20:01;4;3;
80413;PMS5003;69758;52.580;13.068;2023-07-30T13:22:27;3;3;
80413;PMS5003;69758;52.580;13.068;2023-07-30T13:24:59;2;2;
80413;PMS5003;69758;52.580;13.068;2023-07-30T13:27:19;3;3;
80413;PMS5003;69758;52.580;13.068;2023-07-30T13:29:45;4;4;
80413;PMS5003;69758;52.580;13.068;2023-07-30T13:32:11;4;4;
80413;PMS5003;69758;52.580;13.068;2023-07-30T13:34:36;4;4;
80413;PMS5003;69758;52.580;13.068;2023-07-30T13:37:02;4;4;
80413;PMS5003;69758;52.580;13.068;2023-07-30T13:39:28;3;3;
80413;PMS5003;69758;52.580;13.068;2023-07-30T13:41:54;2;2;
80413;PMS5003;69758;52.580;13.068;2023-07-30T13:44:19;3;3;
80413;PMS5003;69758;52.580;13.068;2023-07-30T13:46:56;2;2;
80413;PMS5003;69758;52.580;13.068;2023-07-30T13:49:11;2;2;
80413;PMS5003;69758;52.580;13.068;2023-07-30T13:51:37;3;3;
80413;PMS5003;69758;52.580;13.068;2023-07-30T13:54:03;3;3;
80413;PMS5003;69758;52.580;13.068;2023-07-30T13:56:29;2;2;
80413;PMS5003;69758;52.580;13.068;2023-07-30T13:58:55;3;3;
80413;PMS5003;69758;52.580;13.068;2023-07-30T14:01:20;2;2;
80413;PMS5003;69758;52.580;13.068;2023-07-30T14:03:46;3;3;
80413;PMS5003;69758;52.580;13.068;2023-07-30T14:06:12;4;3;
80413;PMS5003;69758;52.580;13.068;2023-07-30T14:08:38;2;2;
80413;PMS5003;69758;52.580;13.068;2023-07-30T14:11:09;3;3;
80413;PMS5003;69758;52.580;13.068;2023-07-30T14:13:29;3;3;
80413;PMS5003;69758;52.580;13.068;2023-07-30T14:15:55;3;3;
80413;PMS5003;69758;52.580;13.068;2023-07-30T14:18:21;2;2;
80413;PMS5003;69758;52.580;13.068;2023-07-30T14:20:47;3;3;
80413;PMS5003;69758;52.580;13.068;2023-07-30T14:23:13;3;3;
80413;PMS5003;69758;52.580;13.068;2023-07-30T14:25:39;2;2;
80413;PMS5003;69758;52.580;13.068;2023-07-30T14:28:05;3;3;
80413;PMS5003;69758;52.580;13.068;2023-07-30T14:30:30;3;2;
80413;PMS5003;69758;52.580;13.068;2023-07-30T14:32:56;3;3;
80413;PMS5003;69758;52.580;13.068;2023-07-30T14:35:23;2;2;
80413;PMS5003;69758;52.580;13.068;2023-07-30T14:37:48;3;3;
80413;PMS5003;69758;52.580;13.068;2023-07-30T14:40:14;2;2;
80413;PMS5003;69758;52.580;13.068;2023-07-30T14:42:40;4;3;
80413;PMS5003;69758;52.580;13.068;2023-07-30T14:45:06;2;2;
80413;PMS5003;69758;52.580;13.068;2023-07-30T14:47:31;3;2;
80413;PMS5003;69758;52.580;13.068;2023-07-30T14:49:57;1;1;
80413;PMS5003;69758;52.580;13.068;2023-07-30T14:52:23;4;4;
80413;PMS5003;69758;52.580;13.068;2023-07-30T14:54:48;3;2;
80413;PMS5003;69758;52.580;13.068;2023-07-30T14:57:14;3;3;
80413;PMS5003;69758;52.580;13.068;2023-07-30T14:59:39;3;2;
80413;PMS5003;69758;52.580;13.068;2023-07-30T15:02:05;2;2;
80413;PMS5003;69758;52.580;13.068;2023-07-30T15:04:31;4;4;
80413;PMS5003;69758;52.580;13.068;2023-07-30T15:06:56;3;3;
80413;PMS5003;69758;52.580;13.068;2023-07-30T15:09:21;3;3;
80413;PMS5003;69758;52.580;13.068;2023-07-30T15:11:47;4;4;
80413;PMS5003;69758;52.580;13.068;2023-07-30T15:14:13;3;3;
80413;PMS5003;69758;52.580;13.068;2023-07-30T15:16:39;2;2;
80413;PMS5003;69758;52.580;13.068;2023-07-30T15:19:05;2;2;
80413;PMS5003;69758;52.580;13.068;2023-07-30T15:21:30;2;2;
80413;PMS5003;69758;52.580;13.068;2023-07-30T15:23:56;1;1;
80413;PMS5003;69758;52.580;13.068;2023-07-30T15:26:22;2;2;
80413;PMS5003;69758;52.580;13.068;2023-07-30T15:28:48;2;2;
80413;PMS5003;69758;52.580;13.068;2023-07-30T15:31:13;2;2;
80413;PMS5003;69758;52.580;13.068;2023-07-30T15:33:43;1;1;
80413;PMS5003;69758;52.580;13.068;2023-07-30T15:36:04;2;2;
80413;PMS5003;69758;52.580;13.068;2023-07-30T15:38:30;3;3;
80413;PMS5003;69758;52.580;13.068;2023-07-30T15:40:55;3;3;
80413;PMS5003;69758;52.580;13.068;2023-07-30T15:43:21;2;2;
80413;PMS5003;69758;52.580;13.068;2023-07-30T15:45:46;1;1;
80413;PMS5003;69758;52.580;13.068;2023-07-30T15:48:11;1;1;
80413;PMS5003;69758;52.580;13.068;2023-07-30T15:50:38;3;3;
80413;PMS5003;69758;52.580;13.068;2023-07-30T15:53:03;2;2;
80413;PMS5003;69758;52.580;13.068;2023-07-30T15:55:27;2;1;
80413;PMS5003;69758;52.580;13.068;2023-07-30T15:57:52;3;3;
80413;PMS5003;69758;52.580;13.068;2023-07-30T16:00:17;2;1;
80413;PMS5003;69758;52.580;13.068;2023-07-30T16:02:42;3;3;
80413;PMS5003;69758;52.580;13.068;2023-07-30T16:05:08;2;2;
80413;PMS5003;69758;52.580;13.068;2023-07-30T16:07:32;2;2;
80413;PMS5003;69758;52.580;13.068;2023-07-30T16:09:58;1;1;
80413;PMS5003;69758;52.580;13.068;2023-07-30T16:12:24;2;2;
80413;PMS5003;69758;52.580;13.068;2023-07-30T16:14:50;3;3;
80413;PMS5003;69758;52.580;13.068;2023-07-30T16:17:15;4;4;
80413;PMS5003;69758;52.580;13.068;2023-07-30T16:19:40;4;4;
80413;PMS5003;69758;52.580;13.068;2023-07-30T16:22:06;3;3;
80413;PMS5003;69758;52.580;13.068;2023-07-30T16:24:32;2;2;
80413;PMS5003;69758;52.580;13.068;2023-07-30T16:26:58;3;3;
80413;PMS5003;69758;52.580;13.068;2023-07-30T16:29:23;4;4;
80413;PMS5003;69758;52.580;13.068;2023-07-30T16:31:49;3;3;
80413;PMS5003;69758;52.580;13.068;2023-07-30T16:34:15;4;3;
80413;PMS5003;69758;52.580;13.068;2023-07-30T16:36:41;4;4;
80413;PMS5003;69758;52.580;13.068;2023-07-30T16:39:06;4;4;
80413;PMS5003;69758;52.580;13.068;2023-07-30T16:41:31;3;3;
80413;PMS5003;69758;52.580;13.068;2023-07-30T16:43:57;3;3;
80413;PMS5003;69758;52.580;13.068;2023-07-30T16:46:22;3;3;
80413;PMS5003;69758;52.580;13.068;2023-07-30T16:48:47;3;3;
80413;PMS5003;69758;52.580;13.068;2023-07-30T16:51:12;4;4;
80413;PMS5003;69758;52.580;13.068;2023-07-30T16:53:37;3;3;
80413;PMS5003;69758;52.580;13.068;2023-07-30T16:58:33;3;3;
80413;PMS5003;69758;52.580;13.068;2023-07-30T17:03:18;3;3;
80413;PMS5003;69758;52.580;13.068;2023-07-30T17:05:43;5;5;
80413;PMS5003;69758;52.580;13.068;2023-07-30T17:08:08;5;3;
80413;PMS5003;69758;52.580;13.068;2023-07-30T17:10:34;4;4;
80413;PMS5003;69758;52.580;13.068;2023-07-30T17:12:58;4;3;
80413;PMS5003;69758;52.580;13.068;2023-07-30T17:15:23;5;5;
80413;PMS5003;69758;52.580;13.068;2023-07-30T17:17:48;2;2;
80413;PMS5003;69758;52.580;13.068;2023-07-30T17:20:13;5;5;
80413;PMS5003;69758;52.580;13.068;2023-07-30T17:22:38;5;5;
80413;PMS5003;69758;52.580;13.068;2023-07-30T17:25:03;4;3;
80413;PMS5003;69758;52.580;13.068;2023-07-30T17:27:28;5;4;
80413;PMS5003;69758;52.580;13.068;2023-07-30T17:29:54;3;3;
80413;PMS5003;69758;52.580;13.068;2023-07-30T17:32:18;5;5;
80413;PMS5003;69758;52.580;13.068;2023-07-30T17:34:43;3;3;
80413;PMS5003;69758;52.580;13.068;2023-07-30T17:37:08;4;3;
80413;PMS5003;69758;52.580;13.068;2023-07-30T17:39:34;4;4;
80413;PMS5003;69758;52.580;13.068;2023-07-30T17:41:58;4;4;
80413;PMS5003;69758;52.580;13.068;2023-07-30T17:44:23;5;5;
80413;PMS5003;69758;52.580;13.068;2023-07-30T17:46:48;4;4;
80413;PMS5003;69758;52.580;13.068;2023-07-30T17:51:38;5;5;
80413;PMS5003;69758;52.580;13.068;2023-07-30T17:54:03;5;5;
80413;PMS5003;69758;52.580;13.068;2023-07-30T17:56:28;4;4;
80413;PMS5003;69758;52.580;13.068;2023-07-30T17:58:54;5;5;
80413;PMS5003;69758;52.580;13.068;2023-07-30T18:01:19;5;5;